Time;durP1;ratioP1;P1;durP2;ratioP2;P2;SDS_P1;SDS_P2;PMS_P1;PMS_P2;Temp;Humidity;BMP_temperature;BMP_pressure;BME280_temperature;BME280_humidity;BME280_pressure;Samples;Min_cycle;Max_cycle;Signal;HPM_P1;HPM_P2
2021/06/17 00:01:13;;;;;;;24.67;22.27;;;20.40;99.90;;;;;;4985344;28;20234;-83
2021/06/17 00:03:40;;;;;;;26.00;23.00;;;20.30;99.90;;;;;;4992604;28;20050;-83
2021/06/17 00:06:07;;;;;;;24.63;22.52;;;20.30;99.90;;;;;;5000644;28;20567;-83
2021/06/17 00:08:34;;;;;;;25.20;22.75;;;20.30;99.90;;;;;;4973884;28;20136;-82
2021/06/17 00:11:02;;;;;;;25.38;22.65;;;20.20;99.90;;;;;;4984677;28;20231;-83
2021/06/17 00:13:33;;;;;;;24.52;22.10;;;20.10;99.90;;;;;;4999185;28;20074;-84
2021/06/17 00:16:01;;;;;;;25.05;22.63;;;20.00;99.90;;;;;;4997767;28;20034;-83
2021/06/17 00:18:30;;;;;;;25.58;23.08;;;20.00;99.90;;;;;;4986629;28;20608;-84
2021/06/17 00:20:58;;;;;;;27.48;24.83;;;20.00;99.90;;;;;;4986937;28;20062;-83
2021/06/17 00:23:25;;;;;;;26.10;23.40;;;20.10;99.90;;;;;;4969238;28;20054;-83
2021/06/17 00:25:52;;;;;;;27.15;24.50;;;20.00;99.90;;;;;;4986880;28;20048;-83
2021/06/17 00:28:19;;;;;;;26.27;23.67;;;20.00;99.90;;;;;;4971750;28;20088;-84
2021/06/17 00:30:46;;;;;;;27.15;24.13;;;19.90;99.90;;;;;;4988870;28;20096;-83
2021/06/17 00:33:12;;;;;;;29.17;24.15;;;19.90;99.90;;;;;;4978309;28;20042;-84
2021/06/17 00:35:39;;;;;;;25.02;22.20;;;19.80;99.90;;;;;;4989775;28;20080;-83
2021/06/17 00:38:06;;;;;;;25.58;22.98;;;19.70;99.90;;;;;;5019899;28;20081;-84
2021/06/17 00:40:34;;;;;;;26.42;23.65;;;19.70;99.90;;;;;;4968747;28;20129;-84
2021/06/17 00:43:02;;;;;;;28.65;24.42;;;19.60;99.90;;;;;;4986264;28;20069;-83
2021/06/17 00:45:35;;;;;;;28.05;24.60;;;19.60;99.90;;;;;;4968926;28;20043;-84
2021/06/17 00:48:03;;;;;;;27.17;24.35;;;19.60;99.90;;;;;;4970043;28;20133;-84
2021/06/17 00:50:35;;;;;;;27.90;25.38;;;19.60;99.90;;;;;;4985388;28;20106;-84
2021/06/17 00:53:02;;;;;;;26.83;24.15;;;19.60;99.90;;;;;;4976556;28;20182;-84
2021/06/17 00:55:29;;;;;;;27.58;24.83;;;19.50;99.90;;;;;;4981963;28;20073;-84
2021/06/17 00:57:56;;;;;;;25.75;23.15;;;19.40;99.90;;;;;;4951957;28;20148;-84
2021/06/17 01:00:23;;;;;;;26.83;24.33;;;19.30;99.90;;;;;;4985054;28;20489;-84
2021/06/17 01:02:50;;;;;;;28.05;25.23;;;19.40;99.90;;;;;;4984944;28;20532;-84
2021/06/17 01:05:20;;;;;;;28.00;25.20;;;19.40;99.90;;;;;;4967282;28;20053;-83
2021/06/17 01:08:00;;;;;;;26.23;23.58;;;19.30;99.90;;;;;;4986106;28;20088;-83
2021/06/17 01:10:54;;;;;;;27.95;25.20;;;19.30;99.90;;;;;;4985959;28;20046;-83
2021/06/17 01:13:39;;;;;;;27.75;25.02;;;19.30;99.90;;;;;;4985289;28;20141;-84
2021/06/17 01:16:11;;;;;;;27.55;24.73;;;19.30;99.90;;;;;;4985076;28;20653;-83
2021/06/17 01:18:46;;;;;;;26.73;24.02;;;19.20;99.90;;;;;;4953731;28;20512;-84
2021/06/17 01:21:36;;;;;;;26.47;23.67;;;19.20;99.90;;;;;;4983949;28;20057;-83
2021/06/17 01:24:35;;;;;;;27.63;24.75;;;19.10;99.90;;;;;;4985004;28;20806;-84
2021/06/17 01:27:39;;;;;;;28.52;25.45;;;19.10;99.90;;;;;;4933817;28;20097;-84
2021/06/17 01:30:12;;;;;;;27.85;25.02;;;19.10;99.90;;;;;;4967603;28;20354;-83
2021/06/17 01:32:46;;;;;;;27.73;24.90;;;19.00;99.90;;;;;;4974394;28;20136;-83
2021/06/17 01:35:15;;;;;;;29.20;26.33;;;19.00;99.90;;;;;;5004325;28;20050;-83
2021/06/17 01:37:45;;;;;;;26.08;23.58;;;18.90;99.90;;;;;;5003998;28;20053;-84
2021/06/17 01:40:13;;;;;;;31.33;27.58;;;18.90;99.90;;;;;;4968690;28;20509;-84
2021/06/17 01:42:43;;;;;;;28.05;25.25;;;18.90;99.90;;;;;;4968931;28;20058;-83
2021/06/17 01:45:11;;;;;;;27.33;24.58;;;18.80;99.90;;;;;;4983679;28;20062;-83
2021/06/17 01:47:41;;;;;;;30.02;27.02;;;18.80;99.90;;;;;;4968535;28;20069;-83
2021/06/17 01:50:12;;;;;;;29.35;26.40;;;18.80;99.90;;;;;;4967907;28;20051;-83
2021/06/17 01:52:40;;;;;;;29.60;26.60;;;18.80;99.90;;;;;;4916547;28;20050;-83
2021/06/17 01:55:08;;;;;;;28.95;26.15;;;18.80;99.90;;;;;;4950522;28;20081;-84
2021/06/17 01:57:39;;;;;;;30.25;26.13;;;18.70;99.90;;;;;;4979957;28;20162;-84
2021/06/17 02:00:08;;;;;;;30.15;26.90;;;18.70;99.90;;;;;;5001489;28;20050;-84
2021/06/17 02:02:36;;;;;;;34.05;28.25;;;18.60;99.90;;;;;;4961058;28;20236;-84
2021/06/17 02:05:04;;;;;;;30.58;27.58;;;18.60;99.90;;;;;;4984314;28;20052;-84
2021/06/17 02:07:32;;;;;;;32.13;28.75;;;18.50;99.90;;;;;;4957387;28;20492;-84
2021/06/17 02:10:00;;;;;;;31.17;27.85;;;18.50;99.90;;;;;;4985957;28;20050;-83
2021/06/17 02:12:28;;;;;;;33.03;28.13;;;18.50;99.90;;;;;;4985816;28;20046;-84
2021/06/17 02:14:55;;;;;;;29.45;26.55;;;18.40;99.90;;;;;;4985249;28;20038;-84
2021/06/17 02:17:24;;;;;;;29.23;26.20;;;18.30;99.90;;;;;;4986122;28;20045;-84
2021/06/17 02:19:52;;;;;;;30.38;27.17;;;18.30;99.90;;;;;;4968296;28;20042;-83
2021/06/17 02:22:20;;;;;;;31.05;28.10;;;18.30;99.90;;;;;;4985669;28;20105;-84
2021/06/17 02:24:55;;;;;;;30.55;27.25;;;18.30;99.90;;;;;;4967955;28;20050;-84
2021/06/17 02:27:28;;;;;;;33.35;28.85;;;18.30;99.90;;;;;;4975188;28;20496;-84
2021/06/17 02:30:01;;;;;;;30.85;27.65;;;18.30;99.90;;;;;;4969795;28;20062;-83
2021/06/17 02:32:30;;;;;;;32.47;28.58;;;18.20;99.90;;;;;;4966275;28;20069;-83
2021/06/17 02:34:58;;;;;;;31.45;28.10;;;18.30;99.90;;;;;;4967860;28;20043;-84
2021/06/17 02:37:29;;;;;;;30.08;26.02;;;18.20;99.90;;;;;;4968248;28;20137;-86
2021/06/17 02:39:56;;;;;;;30.33;27.30;;;18.20;99.90;;;;;;4964345;28;20458;-84
2021/06/17 02:42:24;;;;;;;33.00;29.08;;;18.20;99.90;;;;;;4965596;28;20134;-83
2021/06/17 02:44:52;;;;;;;30.17;27.05;;;18.10;99.90;;;;;;4971116;28;20101;-84
2021/06/17 02:47:19;;;;;;;32.35;28.95;;;18.10;99.90;;;;;;4976088;28;20035;-84
2021/06/17 02:49:46;;;;;;;31.15;27.75;;;18.20;99.90;;;;;;4983383;28;20439;-83
2021/06/17 02:52:13;;;;;;;32.55;29.23;;;18.20;99.90;;;;;;4968379;28;20080;-84
2021/06/17 02:54:40;;;;;;;34.80;31.10;;;18.10;99.90;;;;;;4983711;28;20056;-84
2021/06/17 02:57:34;;;;;;;34.33;30.20;;;18.10;99.90;;;;;;4997865;28;20580;-84
2021/06/17 03:00:06;;;;;;;33.45;29.95;;;18.20;99.90;;;;;;4985049;28;20050;-84
2021/06/17 03:03:06;;;;;;;31.77;28.38;;;18.10;99.90;;;;;;4965156;28;20043;-83
2021/06/17 03:05:43;;;;;;;32.50;29.00;;;18.00;99.90;;;;;;4967989;28;20062;-84
2021/06/17 03:08:40;;;;;;;35.80;31.20;;;18.00;99.90;;;;;;4985440;28;20109;-83
2021/06/17 03:11:13;;;;;;;34.97;31.02;;;18.00;99.90;;;;;;4988264;28;20042;-84
2021/06/17 03:13:46;;;;;;;33.25;29.67;;;18.00;99.90;;;;;;4990007;28;20062;-83
2021/06/17 03:16:19;;;;;;;32.97;29.58;;;17.90;99.90;;;;;;4986333;28;20530;-83
2021/06/17 03:18:49;;;;;;;33.38;30.13;;;17.90;99.90;;;;;;4986573;28;20051;-83
2021/06/17 03:21:17;;;;;;;33.60;30.08;;;17.90;99.90;;;;;;4970459;28;20046;-84
2021/06/17 03:23:45;;;;;;;33.50;29.98;;;17.90;99.90;;;;;;5002405;28;20047;-83
2021/06/17 03:26:15;;;;;;;31.63;28.52;;;18.00;99.90;;;;;;4969534;28;20436;-84
2021/06/17 03:28:44;;;;;;;33.85;30.42;;;18.00;99.90;;;;;;4986796;28;20050;-83
2021/06/17 03:31:14;;;;;;;36.22;32.72;;;18.00;99.90;;;;;;4987060;28;20137;-83
2021/06/17 03:33:43;;;;;;;33.15;29.70;;;18.00;99.90;;;;;;5000477;28;20075;-83
2021/06/17 03:36:11;;;;;;;33.38;29.77;;;18.00;99.90;;;;;;5005913;28;20129;-83
2021/06/17 03:38:41;;;;;;;33.00;28.98;;;17.90;99.90;;;;;;4981990;28;20038;-83
2021/06/17 03:41:10;;;;;;;34.25;30.48;;;17.90;99.90;;;;;;4967943;28;20544;-83
2021/06/17 03:43:38;;;;;;;32.42;29.17;;;17.90;99.90;;;;;;4966101;28;20130;-84
2021/06/17 03:46:08;;;;;;;33.40;29.77;;;18.00;99.90;;;;;;4999119;28;20034;-83
2021/06/17 03:48:35;;;;;;;33.15;30.05;;;18.10;99.90;;;;;;4953971;28;20097;-84
2021/06/17 03:51:03;;;;;;;35.47;30.15;;;18.10;99.90;;;;;;4984886;28;20056;-83
2021/06/17 03:53:30;;;;;;;31.45;28.35;;;18.20;99.90;;;;;;4987776;28;20054;-83
2021/06/17 03:55:59;;;;;;;32.45;29.05;;;18.20;99.90;;;;;;4970291;28;20535;-83
2021/06/17 03:58:27;;;;;;;33.50;30.08;;;18.30;99.90;;;;;;4954863;28;20085;-83
2021/06/17 04:00:56;;;;;;;30.35;27.50;;;18.40;99.90;;;;;;4987000;28;20077;-83
2021/06/17 04:03:26;;;;;;;33.97;28.02;;;18.40;99.90;;;;;;4986779;28;20066;-83
2021/06/17 04:05:56;;;;;;;30.77;27.67;;;18.50;99.90;;;;;;4985339;28;20125;-85
2021/06/17 04:08:29;;;;;;;29.40;26.35;;;18.60;99.90;;;;;;4970482;28;20042;-83
2021/06/17 04:10:58;;;;;;;29.85;26.65;;;18.80;99.90;;;;;;4987046;28;20042;-83
2021/06/17 04:13:29;;;;;;;29.45;26.42;;;18.80;99.90;;;;;;4987346;28;20065;-83
2021/06/17 04:15:58;;;;;;;28.52;25.65;;;19.00;99.90;;;;;;4970164;28;20070;-83
2021/06/17 04:18:27;;;;;;;27.90;25.15;;;19.20;99.90;;;;;;4955088;28;20114;-84
2021/06/17 04:20:56;;;;;;;27.67;24.92;;;19.30;99.90;;;;;;4969584;28;20073;-84
2021/06/17 04:23:24;;;;;;;28.10;25.27;;;19.40;99.90;;;;;;4986966;28;20050;-83
2021/06/17 04:25:53;;;;;;;26.85;24.33;;;19.50;99.90;;;;;;4970447;28;20046;-83
2021/06/17 04:28:27;;;;;;;25.67;23.08;;;19.50;99.90;;;;;;4995226;28;20043;-83
2021/06/17 04:30:56;;;;;;;26.20;23.60;;;19.70;99.90;;;;;;4969968;28;20046;-83
2021/06/17 04:33:25;;;;;;;26.35;23.58;;;19.90;99.90;;;;;;4998692;28;20069;-84
2021/06/17 04:35:55;;;;;;;29.30;24.15;;;20.20;99.90;;;;;;5023704;28;20049;-84
2021/06/17 04:38:23;;;;;;;25.27;22.98;;;20.40;99.90;;;;;;5008350;28;20147;-84
2021/06/17 04:40:51;;;;;;;25.20;22.77;;;20.80;99.90;;;;;;4994667;28;20056;-84
2021/06/17 04:43:21;;;;;;;23.90;21.88;;;21.10;99.90;;;;;;4987242;28;20065;-84
2021/06/17 04:45:53;;;;;;;25.52;23.33;;;21.40;99.90;;;;;;4970528;28;20046;-84
2021/06/17 04:48:26;;;;;;;24.92;22.83;;;21.70;99.90;;;;;;4965674;28;20062;-84
2021/06/17 04:50:55;;;;;;;25.27;22.90;;;22.00;99.90;;;;;;4977976;28;20651;-83
2021/06/17 04:53:22;;;;;;;25.00;22.70;;;22.20;99.90;;;;;;4988434;28;20084;-84
2021/06/17 04:55:51;;;;;;;24.35;22.15;;;22.50;99.90;;;;;;4969620;28;20053;-84
2021/06/17 04:58:20;;;;;;;23.67;21.67;;;22.80;99.90;;;;;;4968566;28;20065;-84
2021/06/17 05:00:47;;;;;;;23.63;21.52;;;23.00;99.90;;;;;;4966977;28;20062;-84
2021/06/17 05:03:16;;;;;;;21.50;19.73;;;23.00;99.90;;;;;;4980635;28;20078;-84
2021/06/17 05:05:43;;;;;;;23.40;21.35;;;23.30;99.90;;;;;;4951792;28;20143;-83
2021/06/17 05:10:52;;;;;;;23.85;21.50;;;23.30;99.90;;;;;;4971186;28;20046;-85
2021/06/17 05:13:27;;;;;;;21.95;20.27;;;23.50;99.90;;;;;;4987176;28;20055;-84
2021/06/17 05:15:55;;;;;;;;;;;23.40;99.90;;;;;;4970980;28;20073;-84
2021/06/17 05:18:22;;;;;;;22.25;20.48;;;23.40;99.90;;;;;;5004415;28;19984;-84
2021/06/17 05:20:51;;;;;;;23.23;21.13;;;23.40;99.90;;;;;;4969216;28;20144;-84
2021/06/17 05:23:20;;;;;;;22.83;20.80;;;23.40;99.90;;;;;;4971477;28;20532;-85
2021/06/17 05:25:49;;;;;;;21.10;19.45;;;23.20;99.90;;;;;;5005559;28;20042;-85
2021/06/17 05:28:20;;;;;;;20.70;19.30;;;23.40;99.90;;;;;;4987246;28;20061;-84
2021/06/17 05:30:49;;;;;;;22.15;20.25;;;23.60;99.90;;;;;;4970074;28;20121;-85
2021/06/17 05:33:17;;;;;;;21.42;19.52;;;23.70;99.90;;;;;;4996513;28;20218;-86
2021/06/17 05:35:46;;;;;;;21.38;19.55;;;24.00;99.90;;;;;;4981434;28;20054;-84
2021/06/17 05:38:21;;;;;;;21.58;19.88;;;24.00;99.90;;;;;;4970736;28;20102;-83
2021/06/17 05:40:48;;;;;;;22.67;20.50;;;23.90;99.90;;;;;;4989198;28;20042;-85
2021/06/17 05:43:15;;;;;;;21.60;19.80;;;23.90;99.90;;;;;;5003877;28;20106;-84
2021/06/17 05:45:42;;;;;;;21.52;19.60;;;23.90;99.90;;;;;;5002222;28;20082;-85
2021/06/17 05:48:10;;;;;;;20.45;18.77;;;23.90;99.90;;;;;;4971793;28;20132;-84
2021/06/17 05:50:38;;;;;;;21.08;18.95;;;24.10;99.90;;;;;;4970912;28;20049;-85
2021/06/17 05:53:05;;;;;;;22.92;20.85;;;24.00;99.90;;;;;;5003978;28;20406;-85
2021/06/17 05:55:33;;;;;;;20.95;19.35;;;23.90;99.90;;;;;;4987406;28;20157;-85
2021/06/17 05:58:00;;;;;;;21.92;20.17;;;24.00;99.90;;;;;;4996642;28;20081;-85
2021/06/17 06:00:27;;;;;;;20.65;18.92;;;24.00;99.90;;;;;;4971909;28;20054;-85
2021/06/17 06:02:54;;;;;;;20.75;19.10;;;24.10;99.90;;;;;;4986826;28;20042;-86
2021/06/17 06:05:21;;;;;;;21.30;19.67;;;24.20;99.90;;;;;;4989008;28;20055;-85
2021/06/17 06:07:59;;;;;;;20.50;19.10;;;24.20;99.90;;;;;;4972968;28;20077;-85
2021/06/17 06:10:27;;;;;;;19.70;18.15;;;24.30;99.90;;;;;;5004326;28;20022;-85
2021/06/17 06:12:54;;;;;;;20.83;18.88;;;24.70;99.90;;;;;;4993240;28;20049;-82
2021/06/17 06:15:22;;;;;;;21.35;19.75;;;24.70;99.90;;;;;;4973641;28;20102;-86
2021/06/17 06:17:49;;;;;;;21.80;20.23;;;24.60;99.90;;;;;;5009024;28;20037;-85
2021/06/17 06:20:16;;;;;;;22.92;20.92;;;24.80;99.90;;;;;;4993410;28;20047;-84
2021/06/17 06:22:43;;;;;;;21.50;19.80;;;24.90;99.90;;;;;;5009036;28;20098;-85
2021/06/17 06:25:11;;;;;;;22.23;20.33;;;25.20;99.90;;;;;;5009149;28;20042;-84
2021/06/17 06:27:41;;;;;;;21.77;19.65;;;25.00;99.90;;;;;;5008364;28;20042;-83
2021/06/17 06:30:08;;;;;;;20.33;18.73;;;24.90;99.90;;;;;;4983154;28;20501;-83
2021/06/17 06:32:35;;;;;;;21.02;19.27;;;25.10;99.90;;;;;;4991551;28;20045;-84
2021/06/17 06:35:07;;;;;;;21.38;19.77;;;25.30;99.90;;;;;;5005157;28;20062;-82
2021/06/17 06:37:35;;;;;;;21.35;19.67;;;25.50;99.90;;;;;;4989318;28;20030;-83
2021/06/17 06:40:03;;;;;;;21.38;19.80;;;25.60;99.90;;;;;;4985859;28;20058;-82
2021/06/17 06:42:30;;;;;;;24.35;22.45;;;25.70;99.90;;;;;;4984532;28;20047;-82
2021/06/17 06:44:57;;;;;;;21.70;19.95;;;25.60;99.90;;;;;;4969040;28;20416;-83
2021/06/17 06:47:24;;;;;;;22.15;20.20;;;25.70;99.90;;;;;;4970114;28;20394;-83
2021/06/17 06:49:51;;;;;;;21.20;19.48;;;25.90;99.90;;;;;;4976054;28;20077;-82
2021/06/17 06:52:18;;;;;;;21.90;20.30;;;26.20;99.90;;;;;;4989498;28;20587;-83
2021/06/17 06:54:45;;;;;;;22.23;20.45;;;26.50;99.90;;;;;;4969547;28;20046;-82
2021/06/17 06:57:11;;;;;;;20.80;19.30;;;26.50;99.90;;;;;;5003270;28;20086;-82
2021/06/17 06:59:38;;;;;;;21.13;19.63;;;26.30;99.90;;;;;;4968117;28;20050;-83
2021/06/17 07:02:05;;;;;;;19.67;18.13;;;26.20;99.90;;;;;;4965909;28;20234;-82
2021/06/17 07:04:33;;;;;;;20.85;19.40;;;26.30;99.90;;;;;;4983557;28;20444;-84
2021/06/17 07:07:00;;;;;;;20.55;19.05;;;26.50;99.90;;;;;;4982998;28;20134;-82
2021/06/17 07:09:27;;;;;;;20.85;19.35;;;26.60;99.90;;;;;;4966326;28;20129;-82
2021/06/17 07:11:54;;;;;;;19.55;18.05;;;26.50;99.90;;;;;;4999830;28;20050;-83
2021/06/17 07:14:21;;;;;;;19.80;18.27;;;26.80;99.90;;;;;;4967396;28;20113;-83
2021/06/17 07:16:48;;;;;;;19.33;17.85;;;27.20;99.90;;;;;;4982696;28;20527;-83
2021/06/17 07:19:16;;;;;;;20.23;18.50;;;27.50;99.90;;;;;;4968139;28;20042;-82
2021/06/17 07:21:42;;;;;;;20.40;18.95;;;27.50;99.90;;;;;;4967286;28;20162;-82
2021/06/17 07:24:10;;;;;;;20.65;19.25;;;27.40;99.90;;;;;;4982685;28;20050;-83
2021/06/17 07:26:37;;;;;;;21.02;19.40;;;27.10;99.90;;;;;;4973977;28;20062;-84
2021/06/17 07:29:05;;;;;;;19.90;18.45;;;27.10;99.90;;;;;;4983400;28;20855;-82
2021/06/17 07:31:33;;;;;;;19.75;18.27;;;27.30;99.90;;;;;;4967709;28;20519;-84
2021/06/17 07:34:00;;;;;;;19.27;17.90;;;27.50;99.90;;;;;;4999111;28;20421;-83
2021/06/17 07:36:27;;;;;;;19.45;18.10;;;27.60;99.90;;;;;;4990003;28;20078;-83
2021/06/17 07:38:54;;;;;;;20.60;19.15;;;27.90;99.90;;;;;;5002716;28;20113;-83
2021/06/17 07:41:21;;;;;;;20.13;18.40;;;28.10;99.90;;;;;;4988150;28;20441;-83
2021/06/17 07:43:48;;;;;;;20.25;18.88;;;28.20;99.90;;;;;;4987022;28;20564;-84
2021/06/17 07:46:15;;;;;;;19.80;18.50;;;28.10;99.90;;;;;;4974529;28;20066;-84
2021/06/17 07:48:44;;;;;;;20.77;19.13;;;28.30;99.90;;;;;;4968385;28;20065;-84
2021/06/17 07:51:12;;;;;;;19.10;17.95;;;28.40;99.90;;;;;;4985190;28;20065;-84
2021/06/17 07:53:39;;;;;;;19.42;18.17;;;28.50;99.90;;;;;;4970217;28;20419;-85
2021/06/17 07:56:05;;;;;;;19.40;17.88;;;28.60;99.90;;;;;;4986365;28;20068;-83
2021/06/17 07:58:32;;;;;;;19.10;17.75;;;28.30;99.90;;;;;;4987518;28;20038;-82
2021/06/17 08:00:59;;;;;;;19.45;18.02;;;28.50;99.90;;;;;;4971748;28;20053;-84
2021/06/17 08:03:30;;;;;;;18.60;17.30;;;28.60;99.90;;;;;;5003749;28;20050;-82
2021/06/17 08:05:57;;;;;;;18.83;17.60;;;28.70;99.90;;;;;;4986982;28;20416;-83
2021/06/17 08:08:24;;;;;;;18.27;16.95;;;28.70;99.90;;;;;;4971840;28;20077;-83
2021/06/17 08:10:51;;;;;;;18.35;17.30;;;28.90;99.90;;;;;;4970120;28;20281;-82
2021/06/17 08:13:18;;;;;;;19.05;17.77;;;28.90;99.90;;;;;;5001909;28;20536;-82
2021/06/17 08:15:45;;;;;;;18.05;16.73;;;28.80;99.90;;;;;;4960758;28;20066;-83
2021/06/17 08:18:12;;;;;;;17.48;16.33;;;28.60;99.90;;;;;;5002892;28;20073;-82
2021/06/17 08:20:39;;;;;;;18.35;17.15;;;29.20;99.90;;;;;;4986881;28;20136;-82
2021/06/17 08:23:06;;;;;;;18.20;16.70;;;29.40;99.90;;;;;;4969423;28;20073;-83
2021/06/17 08:25:33;;;;;;;18.52;17.17;;;29.50;99.90;;;;;;4986081;28;20385;-83
2021/06/17 08:28:04;;;;;;;19.00;17.70;;;29.70;99.90;;;;;;4986558;28;20027;-84
2021/06/17 08:30:33;;;;;;;18.63;17.30;;;29.80;99.90;;;;;;4986677;28;20054;-84
2021/06/17 08:33:01;;;;;;;19.10;17.75;;;29.40;99.90;;;;;;4993175;28;20479;-83
2021/06/17 08:35:28;;;;;;;18.90;17.60;;;29.70;99.90;;;;;;4989348;28;20096;-84
2021/06/17 08:37:55;;;;;;;19.02;17.90;;;30.00;99.90;;;;;;4987455;28;20141;-83
2021/06/17 08:40:25;;;;;;;18.83;17.67;;;30.20;99.90;;;;;;4985543;28;20058;-84
2021/06/17 08:42:52;;;;;;;20.35;18.73;;;30.40;99.90;;;;;;4968843;28;20535;-84
2021/06/17 08:45:19;;;;;;;20.58;19.10;;;30.20;99.90;;;;;;4969396;28;20121;-83
2021/06/17 08:47:46;;;;;;;19.80;18.30;;;30.20;99.90;;;;;;4975511;28;20062;-84
2021/06/17 08:50:15;;;;;;;20.15;18.45;;;30.10;99.90;;;;;;4965821;28;20068;-84
2021/06/17 08:52:43;;;;;;;19.48;18.08;;;29.70;99.90;;;;;;4965237;28;20524;-84
2021/06/17 08:55:11;;;;;;;18.98;17.80;;;29.60;99.90;;;;;;4968106;28;20049;-83
2021/06/17 08:57:39;;;;;;;19.75;18.33;;;29.90;99.90;;;;;;4993929;28;20042;-83
2021/06/17 09:00:15;;;;;;;19.58;18.35;;;29.50;99.90;;;;;;4986766;28;20088;-85
2021/06/17 09:03:05;;;;;;;19.95;18.45;;;29.70;99.90;;;;;;4968276;28;20053;-84
2021/06/17 09:05:35;;;;;;;20.75;19.17;;;29.70;99.90;;;;;;5002831;28;20034;-84
2021/06/17 09:08:02;;;;;;;19.40;18.00;;;29.90;99.90;;;;;;5027387;28;20062;-84
2021/06/17 09:10:30;;;;;;;18.58;17.17;;;30.10;99.90;;;;;;5011438;28;20123;-83
2021/06/17 09:12:59;;;;;;;20.10;18.00;;;30.50;99.90;;;;;;4986587;28;20038;-83
2021/06/17 09:15:36;;;;;;;19.85;18.45;;;30.30;99.90;;;;;;4983785;28;20497;-84
2021/06/17 09:18:23;;;;;;;19.75;18.35;;;30.00;99.90;;;;;;4981594;28;20186;-84
2021/06/17 09:20:50;;;;;;;19.35;18.05;;;29.70;99.90;;;;;;4985473;28;20125;-84
2021/06/17 09:23:25;;;;;;;19.25;17.95;;;29.90;99.90;;;;;;4984558;28;20053;-84
2021/06/17 09:26:06;;;;;;;17.73;16.48;;;30.00;99.90;;;;;;4968594;28;20043;-84
2021/06/17 09:28:50;;;;;;;19.30;18.08;;;30.50;99.90;;;;;;4968160;28;20054;-84
2021/06/17 09:31:20;;;;;;;20.45;18.77;;;30.90;99.90;;;;;;4986280;28;20759;-84
2021/06/17 09:33:49;;;;;;;22.08;20.38;;;31.00;99.90;;;;;;4982455;28;20475;-84
2021/06/17 09:36:21;;;;;;;25.92;23.45;;;31.30;99.90;;;;;;5005372;28;20084;-85
2021/06/17 09:38:53;;;;;;;19.10;18.00;;;31.20;99.90;;;;;;4991963;28;20046;-83
2021/06/17 09:41:39;;;;;;;20.55;18.90;;;31.00;99.90;;;;;;4949423;28;20051;-84
2021/06/17 09:44:39;;;;;;;20.65;19.13;;;31.10;99.90;;;;;;4950765;28;20081;-84
2021/06/17 09:47:09;;;;;;;19.80;18.58;;;31.40;99.90;;;;;;4968715;28;20046;-87
2021/06/17 09:49:38;;;;;;;19.45;18.25;;;31.20;99.90;;;;;;4967790;28;20050;-84
2021/06/17 09:52:07;;;;;;;18.67;17.48;;;31.00;99.90;;;;;;4986304;28;20279;-85
2021/06/17 09:54:36;;;;;;;18.48;17.38;;;31.30;99.90;;;;;;4971406;28;20046;-84
2021/06/17 09:57:11;;;;;;;19.60;17.92;;;31.80;99.90;;;;;;4989738;28;20207;-83
2021/06/17 09:59:51;;;;;;;19.67;18.27;;;31.10;99.90;;;;;;4981119;28;20050;-84
2021/06/17 10:02:24;;;;;;;18.90;17.70;;;31.00;99.90;;;;;;4971192;28;20066;-84
2021/06/17 10:05:19;;;;;;;18.92;17.83;;;31.40;99.90;;;;;;4965184;28;20620;-84
2021/06/17 10:07:47;;;;;;;19.45;18.15;;;31.70;99.90;;;;;;4953883;28;20472;-84
2021/06/17 10:10:17;;;;;;;18.42;16.85;;;31.00;99.90;;;;;;4984195;28;20090;-85
2021/06/17 10:12:45;;;;;;;18.95;17.55;;;30.80;99.90;;;;;;4984880;28;20058;-84
2021/06/17 10:15:12;;;;;;;18.33;17.23;;;30.80;99.90;;;;;;4984064;28;20534;-84
2021/06/17 10:17:40;;;;;;;17.65;16.55;;;31.00;99.90;;;;;;4983501;28;20116;-84
2021/06/17 10:20:10;;;;;;;17.35;16.25;;;31.00;99.90;;;;;;4984081;28;20056;-84
2021/06/17 10:22:38;;;;;;;17.40;16.23;;;31.00;99.90;;;;;;4967543;28;20054;-83
2021/06/17 10:25:18;;;;;;;17.27;16.00;;;31.00;99.90;;;;;;4983310;28;20096;-84
2021/06/17 10:27:46;;;;;;;17.25;16.25;;;31.30;99.90;;;;;;4992829;28;20065;-84
2021/06/17 10:30:14;;;;;;;17.58;16.27;;;31.90;99.90;;;;;;4987321;28;20039;-85
2021/06/17 10:32:50;;;;;;;17.35;16.52;;;31.90;99.90;;;;;;4978531;28;20052;-84
2021/06/17 10:35:28;;;;;;;17.25;16.25;;;32.00;99.90;;;;;;5005295;28;20573;-86
2021/06/17 10:38:05;;;;;;;18.17;16.98;;;31.50;99.90;;;;;;5002684;28;20050;-85
2021/06/17 10:40:35;;;;;;;16.50;15.68;;;31.30;99.90;;;;;;4985119;28;20046;-84
2021/06/17 10:43:19;;;;;;;16.85;15.93;;;31.00;99.90;;;;;;4969281;28;20708;-84
2021/06/17 10:45:47;;;;;;;19.08;17.40;;;31.00;99.90;;;;;;4975472;28;20047;-83
2021/06/17 10:48:25;;;;;;;16.55;15.57;;;30.80;99.20;;;;;;4985629;28;20158;-83
2021/06/17 10:51:06;;;;;;;17.02;15.93;;;31.00;99.90;;;;;;4967939;28;20117;-83
2021/06/17 10:53:39;;;;;;;15.70;14.80;;;31.40;99.60;;;;;;4985054;28;20322;-84
2021/06/17 10:56:16;;;;;;;16.75;15.80;;;31.40;99.40;;;;;;4969057;28;20287;-83
2021/06/17 10:58:43;;;;;;;17.55;16.65;;;31.40;99.00;;;;;;4952888;28;20132;-83
2021/06/17 11:01:30;;;;;;;17.38;16.17;;;31.50;99.10;;;;;;4984140;28;20046;-83
2021/06/17 11:04:23;;;;;;;17.65;16.50;;;31.60;98.10;;;;;;4985072;28;20282;-83
2021/06/17 11:06:56;;;;;;;16.27;15.38;;;31.80;97.60;;;;;;4973626;28;20145;-84
2021/06/17 11:09:45;;;;;;;16.92;15.85;;;32.10;97.40;;;;;;4984723;28;20047;-84
2021/06/17 11:12:18;;;;;;;15.88;15.07;;;32.20;97.20;;;;;;4968457;28;20576;-83
2021/06/17 11:14:47;;;;;;;17.42;16.15;;;32.00;96.50;;;;;;4967757;28;20051;-85
2021/06/17 11:17:36;;;;;;;16.83;15.73;;;32.00;97.00;;;;;;4972742;28;20077;-84
2021/06/17 11:20:24;;;;;;;16.60;15.60;;;32.40;97.80;;;;;;4948989;28;20517;-84
2021/06/17 11:22:58;;;;;;;16.92;15.93;;;32.40;95.70;;;;;;4947629;28;20165;-84
2021/06/17 11:25:28;;;;;;;;;;;32.20;96.30;;;;;;4964922;28;20054;-85
2021/06/17 11:28:05;;;;;;;17.10;15.77;;;31.90;96.30;;;;;;4949079;28;19922;-84
2021/06/17 11:30:38;;;;;;;16.20;15.18;;;31.60;95.40;;;;;;4938522;28;20070;-85
2021/06/17 11:33:14;;;;;;;15.63;14.82;;;32.00;96.20;;;;;;4983340;28;20472;-83
2021/06/17 11:36:00;;;;;;;15.70;14.82;;;32.30;95.50;;;;;;4986513;28;20092;-84
2021/06/17 11:38:35;;;;;;;15.85;14.45;;;32.60;95.20;;;;;;4987655;28;20129;-83
2021/06/17 11:41:18;;;;;;;16.42;15.30;;;32.90;94.70;;;;;;4971288;28;20070;-85
2021/06/17 11:43:52;;;;;;;15.90;14.80;;;33.00;94.70;;;;;;4971382;28;20054;-84
2021/06/17 11:46:28;;;;;;;14.80;14.00;;;32.40;93.70;;;;;;4970924;28;20221;-85
2021/06/17 11:49:01;;;;;;;15.43;14.32;;;32.30;94.50;;;;;;4970838;28;20046;-86
2021/06/17 11:51:44;;;;;;;15.18;14.25;;;32.20;94.50;;;;;;4970953;28;20047;-86
2021/06/17 11:54:20;;;;;;;16.10;15.10;;;32.40;94.60;;;;;;4955031;28;20432;-84
2021/06/17 11:56:58;;;;;;;16.48;14.85;;;32.70;94.60;;;;;;4953301;28;20621;-85
2021/06/17 11:59:31;;;;;;;15.10;14.35;;;32.30;93.40;;;;;;4971352;28;20058;-84
2021/06/17 12:02:18;;;;;;;16.67;15.70;;;32.30;93.60;;;;;;4970747;28;20501;-84
2021/06/17 12:04:55;;;;;;;15.40;14.40;;;32.10;93.80;;;;;;4969643;28;20390;-85
2021/06/17 12:07:33;;;;;;;15.15;14.25;;;32.20;93.50;;;;;;4954847;28;20512;-84
2021/06/17 12:10:03;;;;;;;15.60;14.60;;;32.10;92.40;;;;;;4955004;28;20137;-84
2021/06/17 12:12:30;;;;;;;15.43;14.65;;;32.20;93.60;;;;;;4938948;28;20599;-84
2021/06/17 12:14:58;;;;;;;16.35;15.38;;;32.20;93.20;;;;;;4971148;28;20512;-83
2021/06/17 12:17:27;;;;;;;16.88;15.60;;;32.00;93.10;;;;;;4970135;28;20101;-85
2021/06/17 12:20:18;;;;;;;16.88;15.68;;;31.90;92.80;;;;;;4969475;28;20073;-85
2021/06/17 12:23:02;;;;;;;16.77;15.57;;;32.40;93.70;;;;;;4945416;28;20200;-87
2021/06/17 12:25:44;;;;;;;16.02;15.23;;;32.90;93.50;;;;;;4922711;28;20051;-85
2021/06/17 12:28:14;;;;;;;16.15;15.00;;;33.20;91.80;;;;;;4989402;28;20330;-85
2021/06/17 12:30:44;;;;;;;16.45;15.20;;;32.70;93.80;;;;;;4985796;28;20054;-85
2021/06/17 12:33:19;;;;;;;15.60;14.80;;;33.10;93.20;;;;;;4996013;28;20092;-84
2021/06/17 12:35:46;;;;;;;16.60;15.55;;;33.20;91.80;;;;;;4990608;28;20050;-85
2021/06/17 12:38:26;;;;;;;16.00;14.88;;;32.70;92.50;;;;;;4985793;28;20086;-84
2021/06/17 12:40:54;;;;;;;15.43;14.63;;;32.60;93.40;;;;;;4985207;28;20145;-85
2021/06/17 12:43:24;;;;;;;15.75;14.68;;;32.70;92.80;;;;;;4970983;28;20058;-85
2021/06/17 12:46:05;;;;;;;15.60;14.68;;;32.90;93.40;;;;;;4985618;28;20042;-85
2021/06/17 12:53:58;;;;;;;16.38;15.38;;;33.40;92.40;;;;;;5006613;28;20532;-84
2021/06/17 12:56:25;;;;;;;15.07;14.07;;;33.20;92.10;;;;;;4974149;28;20046;-85